Página principal
METAR-TAF:

METAR-TAF

Aeroportos :

Aeroporto de Copenhaga

Copenhaga, Dinamarca

latitude: 55-37N, longitude: 012-39E, altura: 5 m

Observação actual do tempo

O boletim foi feito há 34 minutos, às 13:50 UTC
Vento 15 kt de oes-noroeste, variando entre oeste e nor-noroeste
Temperatura 21°C
Humidade 53%
Pressão 1014 hPa
Visibilidade 10 km ou mais
Nuvens fragmentadasa uma altura de 4000 ft

METAR: EKCH 201350Z 30015KT 270V330 9999 BKN040 21/11 Q1014 TEMPO 30015G25KT

Hora: 16:24 (14:24 UTC)

Previsão

O boletim foi feito há 3 horas e 22 minutos, às 11:02 UTC
Previsão válida de 20 às 12 UTC a 21 às 12 UTC
Vento 15 kt de oes-noroeste
Visibilidade 10 km ou mais
Nuvens fragmentadasa uma altura de 2500 ft
Temporariamente
de 20 às 12 UTC a 20 às 16 UTC
Vento 15 kt de oes-noroeste com rajadas de 25 kt
Tornando-se
de 20 às 18 UTC a 20 às 20 UTC
Vento 8 kt de oes-noroeste

TAF: EKCH 201102Z 2012/2112 30015KT 9999 BKN025 TEMPO 2012/2016 30015G25KT BECMG 2018/2020 30008KT

Observações e previsões do tempo de mais de 4000 aeroportos (mensagens METAR e TAF).

As estações disponíveis são os pontos amarelos e vermelhos sobre o mapa.

Mova o rato sobre o mapa para ver o nome da estação.

Depois clique no ponto para visualizar as observações e previsões meteorológicas.

Para alterar o mapa : clique nos botões verdes com uma cruz preta para aumentar o zoom; no botão verde com uma pitada de zoom; ou nas setas verdes para mapas adjacentes.


METAR-TAF: